Kale Nakliyat-2 — TCBA7 — position and weather

sailwx.info

Track history (hours):
 
Tides and Currents Weather Stations Pressure Air Temp Water Temp Dewpoint Dewpoint Depression Visibility Wind Speed Wind Dir Waves Ship Positions

Kale Nakliyat-2

Last reported at 2015-Feb-25 17:30 UTC. Time now 2015-Mar-05 20:16 UTC.
Position N 40°48' E 028°53'.
Warning: this ship's position is 8 days out of date.

Length 72 m; draft 4.3 m.

Type: Cargo ship. MMSI: 271002023.

Date/timePositionNaut miles runAvg speedWind from/ knotsBaromVisibWave heightAir tempDewpointWater temp
2015-Feb-25 17:30N 40°48' E 028°53'10 9.0
2015-Feb-25 16:24N 40°50' E 029°06'6 6.6
2015-Feb-25 15:33N 40°53' E 029°12'0 0.0
2015-Feb-25 14:33N 40°53' E 029°12'0 0.0
2015-Feb-25 13:33N 40°53' E 029°12'0 0.0
2015-Feb-25 12:32N 40°53' E 029°12'0 0.0
2015-Feb-25 11:33N 40°53' E 029°12'0 0.0
2015-Feb-25 10:32N 40°53' E 029°12'0 0.0
2015-Feb-25 09:33N 40°53' E 029°12'0 0.0
2015-Feb-25 08:33N 40°53' E 029°12'0 0.0
2015-Feb-25 07:33N 40°53' E 029°12'0 0.0
2015-Feb-25 06:33N 40°53' E 029°12'0 0.0
2015-Feb-25 05:32N 40°53' E 029°12'0 0.0
2015-Feb-25 04:33N 40°53' E 029°12'0 0.3
2015-Feb-25 03:33N 40°53' E 029°12'9 8.7
2015-Feb-25 02:32N 40°49' E 029°02'8 8.2
2015-Feb-25 01:33N 40°47' E 028°51'9 8.5
2015-Feb-25 00:28N 40°46' E 028°39'12 0.4
2015-Feb-23 17:29N 40°47' E 028°54'8 9.0
2015-Feb-23 16:33N 40°49' E 029°05'7 6.7
2015-Feb-23 15:33N 40°53' E 029°12'0 0.0
2015-Feb-23 14:33N 40°53' E 029°12'0 0.0
2015-Feb-23 13:33N 40°53' E 029°12'0 0.0
2015-Feb-23 12:33N 40°53' E 029°12'0 0.0
2015-Feb-23 11:33N 40°53' E 029°12'0 0.0
2015-Feb-23 10:33N 40°53' E 029°12'0 0.0
2015-Feb-23 09:33N 40°53' E 029°12'0 0.0
2015-Feb-23 08:33N 40°53' E 029°12'0 0.0
2015-Feb-23 07:33N 40°53' E 029°12'22 0.4
2015-Feb-21 05:33N 41°15' E 029°17'2 1.6
2015-Feb-21 04:33N 41°14' E 029°19'17 2.8
2015-Feb-20 22:33N 41°15' E 029°42'  
Track history (hours):
 
Tides and Currents Weather Stations Pressure Air Temp Water Temp Dewpoint Dewpoint Depression Visibility Wind Speed Wind Dir Waves Ship Positions

Kale Nakliyat-2

Last reported at 2015-Feb-25 17:30 UTC. Time now 2015-Mar-05 20:16 UTC.
Position N 40°48' E 028°53'.
Warning: this ship's position is 8 days out of date.

Length 72 m; draft 4.3 m.

Type: Cargo ship. MMSI: 271002023.

Date/timePositionNaut miles runAvg speedWind from/ knotsBaromVisibWave heightAir tempDewpointWater temp
2015-Feb-25 17:30N 40°48' E 028°53'10 9.0
2015-Feb-25 16:24N 40°50' E 029°06'6 6.6
2015-Feb-25 15:33N 40°53' E 029°12'0 0.0
2015-Feb-25 14:33N 40°53' E 029°12'0 0.0
2015-Feb-25 13:33N 40°53' E 029°12'0 0.0
2015-Feb-25 12:32N 40°53' E 029°12'0 0.0
2015-Feb-25 11:33N 40°53' E 029°12'0 0.0
2015-Feb-25 10:32N 40°53' E 029°12'0 0.0
2015-Feb-25 09:33N 40°53' E 029°12'0 0.0
2015-Feb-25 08:33N 40°53' E 029°12'0 0.0
2015-Feb-25 07:33N 40°53' E 029°12'0 0.0
2015-Feb-25 06:33N 40°53' E 029°12'0 0.0
2015-Feb-25 05:32N 40°53' E 029°12'0 0.0
2015-Feb-25 04:33N 40°53' E 029°12'0 0.3
2015-Feb-25 03:33N 40°53' E 029°12'9 8.7
2015-Feb-25 02:32N 40°49' E 029°02'8 8.2
2015-Feb-25 01:33N 40°47' E 028°51'9 8.5
2015-Feb-25 00:28N 40°46' E 028°39'12 0.4
2015-Feb-23 17:29N 40°47' E 028°54'8 9.0
2015-Feb-23 16:33N 40°49' E 029°05'7 6.7
2015-Feb-23 15:33N 40°53' E 029°12'0 0.0
2015-Feb-23 14:33N 40°53' E 029°12'0 0.0
2015-Feb-23 13:33N 40°53' E 029°12'0 0.0
2015-Feb-23 12:33N 40°53' E 029°12'0 0.0
2015-Feb-23 11:33N 40°53' E 029°12'0 0.0
2015-Feb-23 10:33N 40°53' E 029°12'0 0.0
2015-Feb-23 09:33N 40°53' E 029°12'0 0.0
2015-Feb-23 08:33N 40°53' E 029°12'0 0.0
2015-Feb-23 07:33N 40°53' E 029°12'22 0.4
2015-Feb-21 05:33N 41°15' E 029°17'2 1.6
2015-Feb-21 04:33N 41°14' E 029°19'17 2.8
2015-Feb-20 22:33N 41°15' E 029°42'  

Dump ship's entire track history